Time;durP1;ratioP1;P1;durP2;ratioP2;P2;SDS_P1;SDS_P2;PMS_P1;PMS_P2;Temp;Humidity;BMP_temperature;BMP_pressure;BME280_temperature;BME280_humidity;BME280_pressure;Samples;Min_cycle;Max_cycle;Signal;HPM_P1;HPM_P2
2024/03/10 00:01:07;;;;;;;37.95;19.67;;;;;;;4.55;80.31;94869.03;5109657;28;20027;-72
2024/03/10 00:03:33;;;;;;;28.10;17.08;;;;;;;4.55;80.22;94868.22;5126849;28;20057;-72
2024/03/10 00:05:59;;;;;;;27.52;16.70;;;;;;;4.54;80.24;94866.53;5126693;28;20019;-72
2024/03/10 00:08:24;;;;;;;27.67;17.35;;;;;;;4.60;79.02;94863.66;5110879;28;20028;-72
2024/03/10 00:10:50;;;;;;;27.33;16.70;;;;;;;4.58;79.31;94874.00;5092481;28;20073;-72
2024/03/10 00:13:15;;;;;;;27.55;17.45;;;;;;;4.53;79.53;94888.06;5110665;28;20508;-72
2024/03/10 00:15:41;;;;;;;28.55;16.83;;;;;;;4.62;79.75;94879.78;5092464;28;20016;-72
2024/03/10 00:18:06;;;;;;;23.75;15.20;;;;;;;4.84;79.83;94885.34;5110897;28;20051;-72
2024/03/10 00:20:32;;;;;;;21.95;14.05;;;;;;;4.86;79.66;94877.53;5111201;28;20098;-72
2024/03/10 00:22:57;;;;;;;23.58;15.15;;;;;;;4.99;79.32;94877.66;5095323;28;20047;-72
2024/03/10 00:25:23;;;;;;;27.10;17.38;;;;;;;4.81;79.73;94885.53;5095652;28;20023;-72
2024/03/10 00:27:51;;;;;;;26.08;17.02;;;;;;;4.65;80.07;94869.31;5113163;28;20036;-72
2024/03/10 00:30:17;;;;;;;24.55;16.13;;;;;;;4.70;79.33;94868.13;5113237;28;20035;-72
2024/03/10 00:32:43;;;;;;;29.80;17.50;;;;;;;4.65;79.16;94870.19;5078492;28;20485;-72
2024/03/10 00:35:08;;;;;;;29.08;15.98;;;;;;;4.58;79.60;94871.44;5078936;28;20059;-72
2024/03/10 00:37:34;;;;;;;25.65;15.25;;;;;;;4.66;79.69;94855.56;5112187;28;20077;-72
2024/03/10 00:39:59;;;;;;;26.95;16.70;;;;;;;4.64;79.73;94858.22;5095405;28;20043;-72
2024/03/10 00:42:25;;;;;;;25.90;16.30;;;;;;;4.69;80.09;94863.09;5079126;28;20443;-72
2024/03/10 00:44:51;;;;;;;23.33;15.02;;;;;;;4.57;80.07;94850.94;5114176;28;20024;-72
2024/03/10 00:47:16;;;;;;;22.80;15.10;;;;;;;4.63;79.50;94861.72;5096040;28;20024;-72
2024/03/10 00:49:42;;;;;;;26.52;14.63;;;;;;;4.67;79.57;94858.03;5078919;28;20043;-72
2024/03/10 00:52:09;;;;;;;22.10;13.63;;;;;;;4.45;79.62;94845.59;5112809;28;20034;-72
2024/03/10 00:54:34;;;;;;;23.83;14.55;;;;;;;4.42;79.94;94829.50;5112759;28;20038;-72
2024/03/10 00:57:00;;;;;;;22.05;14.05;;;;;;;4.64;79.47;94818.78;5112631;28;20035;-72
2024/03/10 00:59:25;;;;;;;23.60;13.57;;;;;;;4.78;78.80;94818.78;5095614;28;20028;-72
2024/03/10 01:01:51;;;;;;;28.35;15.90;;;;;;;4.35;79.65;94811.03;5095501;28;20462;-72
2024/03/10 01:04:16;;;;;;;22.33;14.25;;;;;;;4.48;80.01;94821.44;5112619;28;20038;-72
2024/03/10 01:06:42;;;;;;;25.05;14.57;;;;;;;4.74;79.42;94826.81;5112522;28;20023;-72
2024/03/10 01:09:08;;;;;;;23.05;13.15;;;;;;;4.99;78.47;94826.16;5113722;28;20063;-72
2024/03/10 01:11:37;;;;;;;26.00;14.90;;;;;;;4.72;79.31;94841.50;5112293;28;20028;-72
2024/03/10 01:14:03;;;;;;;24.15;15.02;;;;;;;4.88;79.27;94831.94;5095744;28;20512;-72
2024/03/10 01:16:29;;;;;;;21.23;13.60;;;;;;;5.02;78.48;94828.53;5112299;28;20027;-72
2024/03/10 01:18:55;;;;;;;22.48;13.90;;;;;;;4.83;79.01;94829.63;5112044;28;20035;-72
2024/03/10 01:21:21;;;;;;;23.73;14.55;;;;;;;4.76;78.92;94824.94;5113532;28;20051;-72
2024/03/10 01:23:47;;;;;;;21.00;12.68;;;;;;;4.91;78.71;94818.88;5112243;28;20031;-72
2024/03/10 01:26:13;;;;;;;19.92;12.48;;;;;;;4.82;78.93;94822.00;5098675;27;20043;-72
2024/03/10 01:28:38;;;;;;;20.75;13.52;;;;;;;4.91;79.02;94830.00;5136146;27;20027;-72
2024/03/10 01:31:04;;;;;;;22.30;14.88;;;;;;;4.56;79.96;94797.81;5118563;27;20038;-72
2024/03/10 01:33:29;;;;;;;22.85;14.60;;;;;;;4.60;80.07;94804.47;5135943;27;20048;-72
2024/03/10 01:35:55;;;;;;;22.83;13.68;;;;;;;4.61;80.00;94818.97;5149269;27;20027;-72
2024/03/10 01:38:21;;;;;;;22.58;13.65;;;;;;;4.72;79.99;94820.91;5131214;27;20033;-72
2024/03/10 01:40:46;;;;;;;20.90;13.07;;;;;;;4.81;79.67;94794.59;5135737;27;20086;-72
2024/03/10 01:43:11;;;;;;;23.65;13.57;;;;;;;4.64;79.72;94790.47;5154203;27;20023;-72
2024/03/10 01:45:37;;;;;;;20.55;12.10;;;;;;;4.73;79.38;94802.78;5154195;27;20025;-72
2024/03/10 01:48:02;;;;;;;20.70;13.13;;;;;;;4.61;79.80;94821.53;5118476;27;20404;-72
2024/03/10 01:50:28;;;;;;;21.75;13.63;;;;;;;4.58;79.62;94814.00;5118417;27;20041;-74
2024/03/10 01:52:54;;;;;;;20.75;13.18;;;;;;;4.46;79.86;94807.84;5101244;27;20038;-73
2024/03/10 01:55:19;;;;;;;20.05;12.30;;;;;;;4.50;79.65;94808.47;5135568;27;20097;-72
2024/03/10 01:57:46;;;;;;;22.15;13.30;;;;;;;4.45;79.62;94825.00;5101333;27;20039;-72
2024/03/10 02:00:13;;;;;;;19.33;12.70;;;;;;;4.39;80.02;94812.50;5135448;27;20025;-73
2024/03/10 02:02:40;;;;;;;21.00;12.40;;;;;;;4.31;80.40;94812.13;5118813;27;20023;-72
2024/03/10 02:05:05;;;;;;;19.95;13.00;;;;;;;4.25;80.56;94807.34;5118723;27;20475;-72
2024/03/10 02:07:31;;;;;;;21.70;13.65;;;;;;;4.09;81.29;94822.00;5153690;27;20039;-72
2024/03/10 02:09:56;;;;;;;21.80;13.38;;;;;;;4.06;82.05;94824.75;5118251;27;20023;-72
2024/03/10 02:12:23;;;;;;;20.63;13.00;;;;;;;4.16;81.89;94820.75;5117919;27;20035;-72
2024/03/10 02:15:01;;;;;;;19.67;12.02;;;;;;;4.24;81.69;94824.53;5135232;27;20018;-72
2024/03/10 02:17:27;;;;;;;23.88;13.48;;;;;;;4.20;81.59;94801.63;5135200;27;20037;-72
2024/03/10 02:19:52;;;;;;;21.88;13.00;;;;;;;4.33;81.65;94820.59;5135406;27;20022;-72
2024/03/10 02:22:20;;;;;;;29.92;16.77;;;;;;;4.35;81.56;94811.03;5153757;27;20026;-72
2024/03/10 02:24:47;;;;;;;24.50;14.98;;;;;;;4.43;81.21;94811.44;5134908;27;20038;-72
2024/03/10 02:27:16;;;;;;;22.23;12.52;;;;;;;4.44;80.83;94807.09;5118192;27;20039;-72
2024/03/10 02:48:51;;;;;;;22.92;13.40;;;;;;;4.17;81.31;94766.63;5122763;27;20044;-72
2024/03/10 02:51:18;;;;;;;21.77;12.68;;;;;;;4.27;81.69;94802.94;5100305;27;20030;-72
2024/03/10 02:53:43;;;;;;;22.35;12.40;;;;;;;4.28;82.08;94799.44;5134577;27;20393;-72
2024/03/10 02:56:08;;;;;;;18.65;11.55;;;;;;;4.55;81.44;94801.31;5117222;27;20027;-72
2024/03/10 02:58:38;;;;;;;19.85;11.77;;;;;;;4.55;80.74;94797.00;5134348;27;20037;-72
2024/03/10 03:01:05;;;;;;;19.95;11.50;;;;;;;4.61;80.43;94801.78;5134459;27;20042;-72
2024/03/10 03:03:31;;;;;;;18.52;10.98;;;;;;;4.72;80.32;94788.28;5152800;27;20113;-73
2024/03/10 03:05:57;;;;;;;22.30;13.63;;;;;;;4.63;79.90;94793.97;5117435;27;20528;-72
2024/03/10 03:08:24;;;;;;;21.83;13.52;;;;;;;4.62;80.50;94794.88;5117118;27;20023;-73
2024/03/10 03:10:50;;;;;;;20.95;13.25;;;;;;;4.51;80.14;94794.69;5134084;27;20412;-72
2024/03/10 03:13:16;;;;;;;24.05;15.18;;;;;;;4.25;80.50;94779.88;5133901;27;20026;-72
2024/03/10 03:15:42;;;;;;;20.25;12.57;;;;;;;4.21;80.00;94772.44;5117373;27;20541;-72
2024/03/10 03:18:07;;;;;;;21.02;13.32;;;;;;;4.07;80.23;94780.13;5134005;27;20027;-72
2024/03/10 03:20:34;;;;;;;22.02;13.38;;;;;;;3.75;81.06;94762.25;5152465;27;20019;-72
2024/03/10 03:23:02;;;;;;;18.45;11.73;;;;;;;3.89;81.04;94769.16;5152464;27;20058;-72
2024/03/10 03:25:28;;;;;;;20.35;12.20;;;;;;;3.80;80.87;94784.19;5134400;27;20038;-72
2024/03/10 03:27:54;;;;;;;20.02;12.95;;;;;;;3.55;81.28;94771.91;5134028;27;20047;-71
2024/03/10 03:30:20;;;;;;;22.95;13.02;;;;;;;3.55;81.84;94787.31;5116875;27;20483;-71
2024/03/10 03:32:47;;;;;;;21.20;13.13;;;;;;;3.39;82.40;94789.06;5134292;27;20035;-71
2024/03/10 03:35:15;;;;;;;21.30;13.25;;;;;;;3.33;82.59;94791.97;5117219;27;20026;-71
2024/03/10 03:37:41;;;;;;;21.85;13.32;;;;;;;3.38;82.14;94782.28;5117233;27;20031;-72
2024/03/10 03:40:07;;;;;;;23.60;13.30;;;;;;;3.41;81.33;94779.53;5133931;27;20039;-71
2024/03/10 03:42:35;;;;;;;20.05;13.48;;;;;;;3.03;80.67;94741.38;5134188;27;20483;-71
2024/03/10 03:45:04;;;;;;;20.73;12.85;;;;;;;3.08;82.25;94775.34;5152297;27;20034;-72
2024/03/10 03:47:30;;;;;;;19.63;11.40;;;;;;;3.13;81.70;94768.22;5117555;27;20026;-71
2024/03/10 03:49:55;;;;;;;21.40;12.48;;;;;;;2.81;81.62;94751.16;5116772;27;20554;-72
2024/03/10 03:52:21;;;;;;;22.85;13.25;;;;;;;2.85;83.06;94780.88;5133570;27;20038;-71
2024/03/10 03:54:46;;;;;;;24.05;13.65;;;;;;;2.90;83.13;94787.44;5135913;27;20058;-71
2024/03/10 03:57:12;;;;;;;27.98;14.98;;;;;;;2.77;83.08;94783.03;5156516;27;20054;-71
2024/03/10 03:59:39;;;;;;;22.60;11.88;;;;;;;2.93;82.38;94785.63;5103612;27;20030;-71
2024/03/10 04:02:04;;;;;;;21.70;11.73;;;;;;;2.98;81.58;94787.03;5120873;27;20043;-71
2024/03/10 04:04:29;;;;;;;23.15;12.18;;;;;;;2.69;83.41;94781.69;5103597;27;20506;-71
2024/03/10 04:06:55;;;;;;;20.80;11.55;;;;;;;2.64;83.75;94780.25;5156309;27;20023;-71
2024/03/10 04:09:21;;;;;;;20.45;12.23;;;;;;;2.37;84.47;94773.09;5137504;27;20030;-72
2024/03/10 04:11:46;;;;;;;20.17;11.65;;;;;;;2.52;85.02;94792.00;5116972;27;20031;-71
2024/03/10 04:14:13;;;;;;;19.35;11.35;;;;;;;2.41;85.08;94782.28;5116896;27;20023;-71
2024/03/10 04:16:39;;;;;;;19.52;11.05;;;;;;;2.49;84.25;94781.91;5117155;27;20079;-71
2024/03/10 04:19:04;;;;;;;21.45;11.10;;;;;;;2.50;84.64;94793.78;5116823;27;20421;-71
2024/03/10 04:21:30;;;;;;;18.25;11.27;;;;;;;2.52;83.55;94781.72;5099755;27;20039;-71
2024/03/10 04:23:56;;;;;;;21.90;12.82;;;;;;;2.53;83.77;94782.56;5116880;27;20027;-72
2024/03/10 04:26:23;;;;;;;19.08;11.52;;;;;;;2.39;84.04;94788.41;5134863;27;20054;-71
2024/03/10 04:28:49;;;;;;;18.30;11.52;;;;;;;2.44;83.40;94784.69;5099722;27;20020;-71
2024/03/10 04:31:16;;;;;;;18.23;10.98;;;;;;;2.29;84.45;94785.47;5116435;27;20477;-71
2024/03/10 04:33:42;;;;;;;22.33;11.55;;;;;;;2.22;84.88;94790.06;5099778;27;20411;-71
2024/03/10 04:36:08;;;;;;;17.42;10.75;;;;;;;2.24;84.42;94780.59;5099392;27;20122;-71
2024/03/10 04:38:34;;;;;;;16.70;10.70;;;;;;;2.37;84.59;94808.19;5116583;27;20028;-71
2024/03/10 04:40:59;;;;;;;19.75;11.43;;;;;;;2.28;84.52;94798.38;5142041;27;20033;-71
2024/03/10 04:43:25;;;;;;;23.40;13.45;;;;;;;2.16;86.38;94802.38;5136278;27;20113;-71
2024/03/10 04:45:53;;;;;;;22.88;12.48;;;;;;;2.27;87.45;94787.28;5136960;27;20029;-71
2024/03/10 04:48:18;;;;;;;23.48;12.63;;;;;;;2.14;87.89;94781.94;5094775;27;20122;-71
2024/03/10 04:50:44;;;;;;;20.70;13.32;;;;;;;2.43;87.85;94803.56;5153025;27;20094;-71
2024/03/10 04:53:10;;;;;;;21.02;12.57;;;;;;;2.43;87.39;94803.56;5102571;27;20030;-71
2024/03/10 04:55:35;;;;;;;24.10;16.63;;;;;;;2.47;86.58;94802.47;5136700;27;20023;-71
2024/03/10 04:58:00;;;;;;;20.45;11.82;;;;;;;2.48;85.05;94800.75;5136569;27;20037;-71
2024/03/10 05:00:26;;;;;;;20.70;12.25;;;;;;;2.30;84.24;94801.69;5136619;27;20404;-71
2024/03/10 05:02:51;;;;;;;20.80;11.85;;;;;;;2.35;84.90;94797.16;5115603;27;20057;-71
2024/03/10 05:05:17;;;;;;;18.15;11.27;;;;;;;2.37;84.43;94793.63;5134233;27;20023;-71
2024/03/10 05:07:42;;;;;;;17.92;10.25;;;;;;;2.33;84.79;94811.78;5115743;27;20123;-71
2024/03/10 05:10:08;;;;;;;21.35;11.75;;;;;;;2.40;85.86;94828.53;5134283;27;20027;-71
2024/03/10 05:12:35;;;;;;;20.27;11.55;;;;;;;2.35;85.79;94826.19;5116196;27;20031;-71
2024/03/10 05:15:03;;;;;;;20.40;11.55;;;;;;;2.54;87.07;94820.97;5127710;27;20033;-71
2024/03/10 05:17:29;;;;;;;21.20;13.02;;;;;;;2.47;86.99;94824.72;5144590;27;20144;-71
2024/03/10 05:19:55;;;;;;;22.33;12.90;;;;;;;2.50;87.61;94824.56;5128283;27;20026;-73
2024/03/10 05:22:20;;;;;;;22.95;12.85;;;;;;;2.63;87.90;94820.47;5135338;27;20031;-72
2024/03/10 05:24:45;;;;;;;20.73;11.52;;;;;;;2.74;87.65;94822.50;5135862;27;20027;-72
2024/03/10 05:27:11;;;;;;;23.98;15.90;;;;;;;2.78;86.20;94802.63;5118705;27;20419;-72
2024/03/10 05:29:36;;;;;;;28.08;16.77;;;;;;;2.83;86.22;94836.56;5136119;27;20026;-72
2024/03/10 05:32:05;;;;;;;21.13;12.98;;;;;;;2.82;86.39;94835.75;5125085;27;20094;-72
2024/03/10 05:34:32;;;;;;;23.60;13.73;;;;;;;2.71;86.24;94821.84;5119130;27;20038;-72
2024/03/10 05:36:58;;;;;;;21.25;12.60;;;;;;;2.87;86.04;94833.78;5113292;27;20090;-72
2024/03/10 05:39:24;;;;;;;22.38;12.52;;;;;;;2.74;86.48;94817.34;5112117;27;20101;-72
2024/03/10 05:41:49;;;;;;;19.70;11.77;;;;;;;3.00;86.50;94848.53;5125937;27;20019;-74
2024/03/10 05:44:15;;;;;;;19.65;12.00;;;;;;;3.00;86.36;94849.34;5123516;27;20035;-77
2024/03/10 05:46:41;;;;;;;21.27;12.30;;;;;;;3.10;86.32;94852.28;5143153;27;20098;-77
2024/03/10 05:49:07;;;;;;;18.20;11.45;;;;;;;3.29;85.59;94840.09;5126365;27;20079;-77
2024/03/10 05:51:32;;;;;;;18.52;11.32;;;;;;;3.28;85.24;94843.56;5100547;27;20027;-77
2024/03/10 05:53:58;;;;;;;20.88;11.95;;;;;;;3.46;85.11;94836.63;5106782;27;20035;-77
2024/03/10 05:56:23;;;;;;;17.90;11.20;;;;;;;3.48;84.99;94833.97;5111223;27;20026;-78
2024/03/10 05:58:49;;;;;;;22.55;13.02;;;;;;;3.28;85.79;94817.06;5126663;27;20031;-77
2024/03/10 06:01:18;;;;;;;18.38;11.90;;;;;;;3.65;85.43;94835.59;5109648;27;20035;-78
2024/03/10 06:03:43;;;;;;;22.65;12.95;;;;;;;3.87;85.11;94851.47;5101236;27;20058;-78
2024/03/10 06:06:09;;;;;;;18.42;11.35;;;;;;;3.42;83.65;94750.38;5103616;27;20054;-77
2024/03/10 06:08:35;;;;;;;18.63;11.48;;;;;;;4.38;84.00;94849.44;5107659;27;20420;-78
2024/03/10 06:11:01;;;;;;;19.73;12.20;;;;;;;5.68;80.30;94832.97;5083133;27;20050;-77
2024/03/10 06:13:26;;;;;;;18.73;11.73;;;;;;;7.03;74.38;94862.06;5083867;27;20034;-83
2024/03/10 06:15:52;;;;;;;18.75;11.80;;;;;;;7.89;69.84;94856.91;5118824;27;20140;-76
2024/03/10 06:26:37;;;;;;;17.55;10.98;;;;;;;10.13;59.56;94852.06;5150921;27;20075;-78
2024/03/10 06:29:04;;;;;;;16.27;11.30;;;;;;;11.07;58.06;94869.44;5152453;27;20023;-77
2024/03/10 06:31:30;;;;;;;15.18;10.63;;;;;;;11.97;54.97;94863.50;5133739;27;20039;-77
2024/03/10 06:33:57;;;;;;;15.32;10.63;;;;;;;12.28;53.65;94863.41;5133284;27;20091;-76
2024/03/10 06:36:22;;;;;;;15.25;10.30;;;;;;;12.93;50.82;94859.25;5099947;27;20049;-78
2024/03/10 06:38:48;;;;;;;13.50;9.77;;;;;;;13.25;50.07;94867.69;5111805;27;20031;-78
2024/03/10 06:41:13;;;;;;;13.60;9.85;;;;;;;14.03;47.65;94853.34;5124113;27;20099;-78
2024/03/10 06:43:39;;;;;;;13.57;10.35;;;;;;;14.99;46.26;94871.06;5116654;27;20032;-79
2024/03/10 06:46:04;;;;;;;14.05;10.57;;;;;;;15.03;46.45;94889.88;5116001;27;20514;-79
2024/03/10 06:48:32;;;;;;;15.15;11.20;;;;;;;14.72;44.25;94875.44;5116598;27;20030;-79
2024/03/10 06:50:58;;;;;;;16.50;11.75;;;;;;;14.11;45.61;94875.31;5135029;27;20037;-79
2024/03/10 06:53:24;;;;;;;14.10;10.38;;;;;;;14.90;44.56;94874.56;5152752;27;20408;-79
2024/03/10 06:55:50;;;;;;;15.63;11.05;;;;;;;15.38;43.95;94886.38;5100824;27;20664;-79
2024/03/10 06:58:20;;;;;;;16.27;11.23;;;;;;;15.60;43.52;94879.75;5142022;27;20030;-79
2024/03/10 07:00:46;;;;;;;14.45;11.27;;;;;;;16.18;41.30;94880.84;5126903;27;20034;-77
2024/03/10 07:03:11;;;;;;;17.25;12.20;;;;;;;15.83;42.00;94885.31;5155262;27;20022;-77
2024/03/10 07:05:40;;;;;;;15.57;12.32;;;;;;;14.07;45.73;94898.28;5160475;27;20479;-77
2024/03/10 07:08:07;;;;;;;15.50;11.70;;;;;;;13.27;48.15;94884.88;5148010;27;20023;-77
2024/03/10 07:10:35;;;;;;;16.08;12.00;;;;;;;14.70;46.23;94903.50;5116582;27;20034;-77
2024/03/10 07:13:04;;;;;;;16.63;12.32;;;;;;;14.37;46.75;94902.34;5158094;27;20439;-78
2024/03/10 07:15:30;;;;;;;15.35;11.57;;;;;;;16.11;42.68;94892.97;5151527;27;20045;-77
2024/03/10 07:17:56;;;;;;;14.25;11.27;;;;;;;14.88;45.09;94905.31;5133623;27;20480;-77
2024/03/10 07:20:21;;;;;;;17.40;12.98;;;;;;;14.49;46.16;94908.19;5153363;27;20114;-78
2024/03/10 07:22:46;;;;;;;14.45;11.15;;;;;;;13.10;48.06;94902.06;5134861;27;20049;-78
2024/03/10 07:25:14;;;;;;;17.77;13.60;;;;;;;12.66;49.72;94873.00;5134507;27;20055;-78
2024/03/10 07:27:43;;;;;;;19.95;13.50;;;;;;;13.79;47.69;94885.25;5131103;28;20078;-78
2024/03/10 07:30:09;;;;;;;17.83;13.40;;;;;;;12.86;49.69;94884.22;5114310;28;20461;-78
2024/03/10 07:32:34;;;;;;;16.38;12.13;;;;;;;12.89;49.14;94877.91;5131096;28;20031;-78
2024/03/10 07:35:00;;;;;;;17.40;12.02;;;;;;;12.19;51.69;94890.25;5113986;28;20058;-77
2024/03/10 07:37:26;;;;;;;16.85;12.77;;;;;;;12.21;52.04;94901.38;5097229;28;20500;-78
2024/03/10 07:39:52;;;;;;;17.17;13.00;;;;;;;11.03;54.52;94895.81;5114226;28;20071;-77
2024/03/10 07:42:19;;;;;;;16.48;12.63;;;;;;;10.02;57.56;94860.69;5114580;28;20529;-78
2024/03/10 07:44:44;;;;;;;18.20;12.95;;;;;;;10.39;57.17;94876.78;5114356;28;20027;-77
2024/03/10 07:47:10;;;;;;;15.82;11.85;;;;;;;10.94;56.70;94895.63;5113685;28;20043;-78
2024/03/10 07:49:35;;;;;;;14.40;10.80;;;;;;;11.49;55.00;94891.97;5096750;28;20019;-78
2024/03/10 07:52:01;;;;;;;16.70;11.48;;;;;;;10.59;57.02;94898.53;5105941;28;20028;-77
2024/03/10 07:54:26;;;;;;;15.45;11.55;;;;;;;10.64;56.93;94880.81;5126225;28;20024;-77
2024/03/10 07:56:53;;;;;;;16.90;11.18;;;;;;;10.25;58.41;94890.84;5102572;28;20032;-77
2024/03/10 07:59:21;;;;;;;16.15;11.98;;;;;;;9.83;59.18;94859.59;5105876;28;20028;-81
2024/03/10 08:01:49;;;;;;;15.90;11.38;;;;;;;10.18;58.87;94884.50;5127955;28;20074;-76
2024/03/10 08:04:17;;;;;;;15.77;12.38;;;;;;;9.66;60.17;94888.59;5119014;28;20276;-78
2024/03/10 08:06:43;;;;;;;16.83;11.75;;;;;;;9.95;59.71;94883.75;5131144;27;20084;-77
2024/03/10 08:09:15;;;;;;;16.27;11.90;;;;;;;9.91;58.93;94835.59;5126228;27;20028;-80
2024/03/10 08:11:44;;;;;;;17.00;12.30;;;;;;;10.40;57.99;94852.47;5129301;28;20039;-78
2024/03/10 08:14:10;;;;;;;15.15;11.10;;;;;;;10.25;58.13;94836.34;5125354;28;20031;-76
2024/03/10 08:16:36;;;;;;;16.20;12.27;;;;;;;10.58;58.39;94875.28;5112613;28;20031;-75
2024/03/10 08:19:01;;;;;;;17.00;12.45;;;;;;;10.52;58.49;94876.59;5129953;27;20038;-74
2024/03/10 08:21:27;;;;;;;16.23;11.32;;;;;;;10.55;57.85;94875.53;5130856;27;20042;-77
2024/03/10 08:23:54;;;;;;;17.80;12.10;;;;;;;10.62;58.41;94872.31;5126761;28;20035;-78
2024/03/10 08:26:20;;;;;;;17.83;12.65;;;;;;;10.50;58.34;94842.13;5133339;27;20023;-76
2024/03/10 08:28:46;;;;;;;16.63;12.45;;;;;;;10.18;59.73;94871.50;5151311;27;20023;-75
2024/03/10 08:31:13;;;;;;;15.80;11.23;;;;;;;10.63;58.43;94860.16;5149718;27;20053;-72
2024/03/10 08:33:38;;;;;;;20.63;12.50;;;;;;;10.34;58.12;94833.97;5144663;27;20030;-77
2024/03/10 08:36:04;;;;;;;14.48;10.13;;;;;;;10.55;58.16;94855.56;5146555;27;20027;-70
2024/03/10 08:38:30;;;;;;;13.43;10.05;;;;;;;10.03;59.56;94855.41;5132779;27;20035;-75
2024/03/10 08:40:56;;;;;;;12.30;9.07;;;;;;;10.19;59.15;94860.16;5141271;27;20031;-73
2024/03/10 08:43:23;;;;;;;10.65;8.02;;;;;;;9.95;59.62;94850.00;5116716;27;20030;-75
2024/03/10 08:45:48;;;;;;;11.15;8.88;;;;;;;10.04;59.29;94851.03;5117884;27;20164;-75
2024/03/10 08:48:14;;;;;;;17.33;9.32;;;;;;;9.94;59.92;94831.94;5113990;27;20457;-75
2024/03/10 08:50:40;;;;;;;14.52;9.75;;;;;;;9.78;59.58;94830.59;5096897;27;20022;-75
2024/03/10 08:53:06;;;;;;;10.63;8.00;;;;;;;9.87;59.78;94836.00;5120465;27;20026;-74
2024/03/10 08:55:32;;;;;;;13.38;10.25;;;;;;;9.91;60.60;94842.56;5117030;27;20240;-74
2024/03/10 08:57:57;;;;;;;13.52;9.45;;;;;;;9.47;60.37;94797.63;5114373;27;20136;-74
2024/03/10 09:00:24;;;;;;;12.68;9.00;;;;;;;9.70;60.94;94838.16;5126121;27;20020;-74
2024/03/10 09:02:50;;;;;;;15.02;10.23;;;;;;;9.75;61.47;94833.44;5112583;27;20068;-74
2024/03/10 09:05:15;;;;;;;12.52;8.93;;;;;;;9.81;61.61;94835.53;5106838;27;20075;-74
2024/03/10 09:07:44;;;;;;;12.10;9.15;;;;;;;9.84;60.96;94837.06;5100011;27;20047;-73
2024/03/10 09:10:10;;;;;;;13.00;9.52;;;;;;;9.87;61.62;94838.59;5116579;27;20037;-74
2024/03/10 09:12:35;;;;;;;12.75;8.73;;;;;;;9.36;61.96;94799.31;5113556;27;20035;-74
2024/03/10 09:15:01;;;;;;;15.32;9.93;;;;;;;9.94;60.54;94834.53;5149055;27;20536;-74
2024/03/10 09:17:27;;;;;;;12.60;9.52;;;;;;;9.82;62.22;94837.16;5120078;27;20055;-73
2024/03/10 09:19:53;;;;;;;14.23;10.13;;;;;;;9.67;61.62;94815.06;5127592;27;20406;-73
2024/03/10 09:22:19;;;;;;;13.82;9.93;;;;;;;9.90;62.22;94827.97;5150113;27;20050;-77
2024/03/10 09:24:44;;;;;;;16.80;10.07;;;;;;;10.17;61.04;94822.31;5108755;27;20755;-74
2024/03/10 09:27:12;;;;;;;12.75;9.48;;;;;;;9.85;61.68;94798.00;5113892;27;20061;-75
2024/03/10 09:29:38;;;;;;;13.13;8.63;;;;;;;10.00;62.03;94821.06;5148790;27;20031;-75
2024/03/10 09:32:06;;;;;;;14.13;10.63;;;;;;;9.91;61.37;94816.63;5107033;27;20030;-75
2024/03/10 09:34:31;;;;;;;13.43;10.07;;;;;;;10.02;61.29;94826.97;5129013;27;20467;-75
2024/03/10 09:36:57;;;;;;;13.30;9.13;;;;;;;9.91;62.03;94821.81;5106219;27;20027;-75
2024/03/10 09:39:25;;;;;;;13.07;8.82;;;;;;;9.97;61.83;94797.97;5123242;27;20046;-75
2024/03/10 09:41:53;;;;;;;13.70;9.45;;;;;;;10.00;62.37;94805.50;5123860;27;20125;-75
2024/03/10 09:44:22;;;;;;;14.85;9.40;;;;;;;10.03;62.22;94798.31;5098483;27;20117;-75
2024/03/10 09:46:49;;;;;;;14.32;10.13;;;;;;;10.22;62.05;94802.84;5107310;27;20106;-75
2024/03/10 09:49:16;;;;;;;14.90;11.20;;;;;;;10.19;62.04;94792.66;5149732;27;20031;-72
2024/03/10 09:51:45;;;;;;;16.73;11.07;;;;;;;10.21;61.81;94788.19;5114249;27;20039;-75
2024/03/10 09:54:11;;;;;;;12.48;8.77;;;;;;;10.56;61.58;94791.44;5112781;27;20123;-73
2024/03/10 09:56:37;;;;;;;13.48;10.00;;;;;;;10.40;61.44;94784.13;5079111;27;20087;-75
2024/03/10 09:59:05;;;;;;;14.10;9.40;;;;;;;10.47;61.45;94780.91;5116500;27;20023;-75
2024/03/10 10:01:32;;;;;;;14.65;10.23;;;;;;;10.40;61.86;94764.16;5097665;27;20031;-71
2024/03/10 10:03:57;;;;;;;13.40;9.55;;;;;;;10.16;62.09;94750.56;5106620;27;20083;-75
2024/03/10 10:06:23;;;;;;;13.65;8.50;;;;;;;10.28;61.68;94755.63;5110675;27;20030;-74
2024/03/10 10:08:54;;;;;;;16.13;11.05;;;;;;;10.42;61.43;94757.09;5120760;27;20035;-77
2024/03/10 10:11:23;;;;;;;;;;;;;;;10.71;61.46;94761.59;5117955;27;20527;-76
2024/03/10 10:14:09;;;;;;;14.75;9.77;;;;;;;10.67;61.54;94762.81;5144156;27;19916;-75
2024/03/10 10:16:34;;;;;;;13.27;9.40;;;;;;;10.49;61.66;94736.59;5121645;27;20039;-76
2024/03/10 10:19:08;;;;;;;14.10;9.75;;;;;;;10.64;61.75;94756.13;5093444;27;20039;-76
2024/03/10 10:21:36;;;;;;;16.17;11.07;;;;;;;10.70;61.75;94750.41;5112035;27;20386;-77
2024/03/10 10:24:02;;;;;;;15.57;10.50;;;;;;;10.70;61.28;94741.78;5116803;27;20023;-76
2024/03/10 10:26:27;;;;;;;15.75;10.48;;;;;;;10.97;60.88;94741.19;5109574;27;20066;-77
2024/03/10 10:29:07;;;;;;;14.30;9.70;;;;;;;10.98;60.88;94737.66;5123791;27;20042;-76
2024/03/10 10:31:34;;;;;;;15.35;10.20;;;;;;;11.08;60.61;94742.88;5116399;27;20106;-76
2024/03/10 10:33:59;;;;;;;16.48;9.88;;;;;;;10.96;61.61;94736.97;5124530;27;20343;-76
2024/03/10 10:36:24;;;;;;;16.90;10.48;;;;;;;11.19;60.49;94735.78;5091863;27;20031;-76
2024/03/10 10:38:50;;;;;;;13.93;10.05;;;;;;;11.27;60.71;94742.13;5106630;27;20035;-76
2024/03/10 10:41:15;;;;;;;16.48;11.38;;;;;;;11.14;60.90;94735.41;5117446;27;20031;-76
2024/03/10 10:43:42;;;;;;;14.43;10.50;;;;;;;11.40;59.09;94706.31;5129340;27;20031;-76
2024/03/10 10:46:12;;;;;;;15.13;10.60;;;;;;;11.35;59.82;94711.06;5122258;27;20484;-76
2024/03/10 10:48:39;;;;;;;14.73;9.68;;;;;;;11.14;59.84;94726.75;5102741;27;20030;-76
2024/03/10 10:51:08;;;;;;;13.35;9.90;;;;;;;11.69;58.99;94724.53;5121338;27;20038;-76
2024/03/10 10:53:34;;;;;;;16.30;10.85;;;;;;;11.45;59.84;94690.28;5077543;27;20038;-76
2024/03/10 10:56:00;;;;;;;14.75;10.48;;;;;;;11.47;59.58;94720.41;5102347;27;20027;-76
2024/03/10 10:58:31;;;;;;;14.15;10.70;;;;;;;11.53;59.44;94722.47;5099267;27;20491;-76
2024/03/10 11:01:00;;;;;;;11.70;8.82;;;;;;;11.77;58.60;94698.66;5121954;27;20095;-76
2024/03/10 11:03:26;;;;;;;13.20;10.02;;;;;;;11.82;58.37;94690.44;5113559;27;20870;-76
2024/03/10 11:06:01;;;;;;;12.65;9.27;;;;;;;12.17;57.66;94702.88;5148072;27;20027;-76
2024/03/10 11:08:29;;;;;;;11.82;9.85;;;;;;;11.96;59.05;94702.25;5144561;27;20527;-76
2024/03/10 11:10:55;;;;;;;15.43;10.38;;;;;;;11.96;58.95;94692.66;5105536;27;20556;-76
2024/03/10 11:13:22;;;;;;;13.68;9.30;;;;;;;12.05;58.06;94698.81;5144688;27;20038;-76
2024/03/10 11:16:04;;;;;;;14.45;10.88;;;;;;;12.02;58.44;94694.69;5121819;27;20101;-76
2024/03/10 11:18:30;;;;;;;11.98;9.05;;;;;;;12.24;57.36;94666.72;5080393;27;20035;-76
2024/03/10 11:20:56;;;;;;;12.98;9.43;;;;;;;12.42;57.44;94682.41;5122487;27;20053;-76
2024/03/10 11:23:29;;;;;;;13.27;9.77;;;;;;;12.58;56.25;94684.44;5082221;27;20547;-76
2024/03/10 11:25:54;;;;;;;11.25;8.40;;;;;;;12.73;55.38;94685.59;5123466;27;20023;-76
2024/03/10 11:28:25;;;;;;;12.63;9.45;;;;;;;12.74;56.36;94672.44;5103685;28;20551;-77
2024/03/10 11:31:00;;;;;;;11.93;8.90;;;;;;;13.05;56.01;94679.16;5090210;28;20034;-77
2024/03/10 11:33:25;;;;;;;13.40;8.85;;;;;;;13.09;55.43;94672.69;5103306;28;20036;-76
2024/03/10 11:35:52;;;;;;;11.68;8.70;;;;;;;12.87;56.10;94674.72;5066161;28;20036;-80
2024/03/10 11:38:20;;;;;;;11.77;8.27;;;;;;;13.11;54.80;94655.13;5097492;28;20170;-77
2024/03/10 11:40:46;;;;;;;12.57;8.32;;;;;;;13.20;55.12;94672.47;5088135;28;20023;-78
2024/03/10 11:43:13;;;;;;;36.45;17.88;;;;;;;13.13;55.06;94638.34;5096362;28;20520;-79
2024/03/10 11:45:40;;;;;;;10.73;8.60;;;;;;;13.14;55.14;94662.63;5065787;28;20040;-78
2024/03/10 11:48:08;;;;;;;13.52;9.30;;;;;;;13.32;55.50;94660.09;5099371;28;20414;-80